createdAt,value
2023-03-20T00:00:09.639Z,446.00
2023-03-20T00:01:09.628Z,443.00
2023-03-20T00:02:09.645Z,442.00
2023-03-20T00:03:09.648Z,441.00
2023-03-20T00:04:09.711Z,442.00
2023-03-20T00:05:09.699Z,443.00
2023-03-20T00:06:09.663Z,442.00
2023-03-20T00:07:09.663Z,444.00
2023-03-20T00:08:09.673Z,444.00
2023-03-20T00:09:09.669Z,443.00
2023-03-20T00:10:09.663Z,441.00
2023-03-20T00:11:09.732Z,439.00
2023-03-20T00:12:09.687Z,441.00
2023-03-20T00:13:09.697Z,439.00
2023-03-20T00:14:09.694Z,441.00
2023-03-20T00:15:09.706Z,442.00
2023-03-20T00:16:09.753Z,439.00
2023-03-20T00:17:09.709Z,440.00
2023-03-20T00:18:09.715Z,439.00
2023-03-20T00:19:09.729Z,440.00
2023-03-20T00:20:09.740Z,441.00
2023-03-20T00:21:09.733Z,437.00
2023-03-20T00:22:09.770Z,440.00
2023-03-20T00:23:09.833Z,440.00
2023-03-20T00:24:09.777Z,441.00
2023-03-20T00:25:09.789Z,440.00
2023-03-20T00:26:09.791Z,439.00
2023-03-20T00:27:09.801Z,437.00
2023-03-20T00:28:09.794Z,437.00
2023-03-20T00:29:09.790Z,441.00
2023-03-20T00:30:09.800Z,455.00
2023-03-20T00:31:09.840Z,453.00
2023-03-20T00:32:09.810Z,451.00
2023-03-20T00:33:09.833Z,452.00
2023-03-20T00:34:09.816Z,451.00
2023-03-20T00:35:09.816Z,451.00
2023-03-20T00:36:09.866Z,450.00
2023-03-20T00:37:09.837Z,447.00
2023-03-20T00:38:09.850Z,448.00
2023-03-20T00:39:09.857Z,445.00
2023-03-20T00:40:09.866Z,448.00
2023-03-20T00:41:09.901Z,449.00
2023-03-20T00:42:09.928Z,449.00
2023-03-20T00:43:09.951Z,450.00
2023-03-20T00:44:09.954Z,448.00
2023-03-20T00:45:09.969Z,450.00
2023-03-20T00:46:09.983Z,446.00
2023-03-20T00:47:09.988Z,439.00
2023-03-20T00:48:10.004Z,443.00
2023-03-20T00:49:10.013Z,442.00
2023-03-20T00:50:10.032Z,442.00
2023-03-20T00:51:10.037Z,441.00
2023-03-20T00:52:10.037Z,438.00
2023-03-20T00:53:10.049Z,441.00
2023-03-20T00:54:10.044Z,441.00
2023-03-20T00:55:10.055Z,438.00
2023-03-20T00:56:10.059Z,439.00
2023-03-20T00:57:10.065Z,440.00
2023-03-20T00:58:10.101Z,442.00
2023-03-20T00:59:10.112Z,443.00
2023-03-20T01:00:10.132Z,442.00
2023-03-20T01:01:10.185Z,440.00
2023-03-20T01:02:10.225Z,440.00
2023-03-20T01:03:10.187Z,438.00
2023-03-20T01:04:10.210Z,440.00
2023-03-20T01:05:10.232Z,439.00
2023-03-20T01:06:10.259Z,437.00
2023-03-20T01:07:10.280Z,439.00
2023-03-20T01:08:10.304Z,439.00
2023-03-20T01:09:10.339Z,438.00
2023-03-20T01:10:10.361Z,440.00
2023-03-20T01:11:10.389Z,441.00
2023-03-20T01:12:10.412Z,451.00
2023-03-20T01:13:10.443Z,445.00
2023-03-20T01:14:10.491Z,442.00
2023-03-20T01:15:10.515Z,437.00
2023-03-20T01:16:10.590Z,442.00
2023-03-20T01:17:13.459Z,434.00
2023-03-20T01:18:10.574Z,437.00
2023-03-20T01:19:10.595Z,438.00
2023-03-20T01:20:10.604Z,440.00
2023-03-20T01:21:10.605Z,440.00
2023-03-20T01:22:10.605Z,441.00
2023-03-20T01:23:10.610Z,443.00
2023-03-20T01:24:10.621Z,444.00
2023-03-20T01:25:10.612Z,444.00
2023-03-20T01:26:10.622Z,443.00
2023-03-20T01:27:10.627Z,444.00
2023-03-20T01:28:10.611Z,444.00
2023-03-20T01:29:10.620Z,444.00
2023-03-20T01:30:10.618Z,443.00
2023-03-20T01:31:10.616Z,440.00
2023-03-20T01:32:10.713Z,441.00
2023-03-20T01:33:10.662Z,442.00
2023-03-20T01:34:10.622Z,445.00
2023-03-20T01:35:10.634Z,441.00
2023-03-20T01:36:10.642Z,441.00
2023-03-20T01:37:10.635Z,440.00
2023-03-20T01:38:10.630Z,440.00
2023-03-20T01:39:10.645Z,439.00
2023-03-20T01:40:10.638Z,439.00
2023-03-20T01:41:10.639Z,440.00
2023-03-20T01:42:10.635Z,439.00
2023-03-20T01:43:10.635Z,439.00
2023-03-20T01:44:10.643Z,440.00
2023-03-20T01:45:10.653Z,441.00
2023-03-20T01:46:10.696Z,442.00
2023-03-20T01:47:10.646Z,441.00
2023-03-20T01:48:10.655Z,443.00
2023-03-20T01:49:10.651Z,444.00
2023-03-20T01:50:10.649Z,447.00
2023-03-20T01:51:10.648Z,449.00
2023-03-20T01:52:10.642Z,448.00
2023-03-20T01:53:10.657Z,448.00
2023-03-20T01:54:10.668Z,454.00
2023-03-20T01:55:10.674Z,453.00
2023-03-20T01:56:10.678Z,451.00
2023-03-20T01:57:10.689Z,449.00
2023-03-20T01:58:10.680Z,448.00
2023-03-20T01:59:10.687Z,446.00
2023-03-20T02:00:10.697Z,445.00
2023-03-20T02:01:10.717Z,444.00
2023-03-20T02:02:10.699Z,436.00
2023-03-20T02:03:10.704Z,459.00
2023-03-20T02:04:10.701Z,440.00
2023-03-20T02:05:10.797Z,444.00
2023-03-20T02:06:10.698Z,443.00
2023-03-20T02:07:10.720Z,444.00
2023-03-20T02:08:10.716Z,442.00
2023-03-20T02:09:10.720Z,432.00
2023-03-20T02:10:10.732Z,436.00
2023-03-20T02:11:10.727Z,444.00
2023-03-20T02:12:10.738Z,447.00
2023-03-20T02:13:10.749Z,447.00
2023-03-20T02:14:10.745Z,442.00
2023-03-20T02:15:10.759Z,445.00
2023-03-20T02:16:10.774Z,446.00
2023-03-20T02:17:10.776Z,447.00
2023-03-20T02:18:10.788Z,448.00
2023-03-20T02:19:10.787Z,444.00
2023-03-20T02:20:10.801Z,440.00
2023-03-20T02:21:10.797Z,441.00
2023-03-20T02:22:10.800Z,444.00
2023-03-20T02:23:10.795Z,447.00
2023-03-20T02:24:10.795Z,444.00
2023-03-20T02:25:10.814Z,443.00
2023-03-20T02:26:10.834Z,440.00
2023-03-20T02:27:10.818Z,441.00
2023-03-20T02:28:10.817Z,455.00
2023-03-20T02:29:10.821Z,456.00
2023-03-20T02:30:10.820Z,453.00
2023-03-20T02:31:10.906Z,449.00
2023-03-20T02:32:10.825Z,448.00
2023-03-20T02:33:10.945Z,451.00
2023-03-20T02:34:10.849Z,444.00
2023-03-20T02:35:10.856Z,443.00
2023-03-20T02:36:10.890Z,441.00
2023-03-20T02:37:10.877Z,439.00
2023-03-20T02:38:10.885Z,440.00
2023-03-20T02:39:10.893Z,440.00
2023-03-20T02:40:11.014Z,446.00
2023-03-20T02:41:11.026Z,447.00
2023-03-20T02:42:10.912Z,444.00
2023-03-20T02:43:10.999Z,442.00
2023-03-20T02:44:10.966Z,441.00
2023-03-20T02:45:11.012Z,441.00
2023-03-20T02:46:11.123Z,442.00
2023-03-20T02:47:11.110Z,441.00
2023-03-20T02:48:11.143Z,449.00
2023-03-20T02:49:11.183Z,440.00
2023-03-20T02:50:11.228Z,453.00
2023-03-20T02:51:11.262Z,443.00
2023-03-20T02:52:11.315Z,443.00
2023-03-20T02:53:11.359Z,446.00
2023-03-20T02:54:11.426Z,448.00
2023-03-20T02:55:11.474Z,448.00
2023-03-20T02:56:11.542Z,442.00
2023-03-20T02:57:11.589Z,429.00
2023-03-20T02:58:11.637Z,435.00
2023-03-20T02:59:11.677Z,449.00
2023-03-20T03:00:11.729Z,446.00
2023-03-20T03:01:11.925Z,450.00
2023-03-20T03:02:11.797Z,449.00
2023-03-20T03:03:11.850Z,447.00
2023-03-20T03:04:11.888Z,445.00
2023-03-20T03:05:11.942Z,446.00
2023-03-20T03:06:11.990Z,419.00
2023-03-20T03:07:12.032Z,434.00
2023-03-20T03:08:12.063Z,426.00
2023-03-20T03:09:12.184Z,445.00
2023-03-20T03:10:12.117Z,445.00
2023-03-20T03:11:12.165Z,440.00
2023-03-20T03:12:12.210Z,430.00
2023-03-20T03:13:12.249Z,445.00
2023-03-20T03:14:12.294Z,443.00
2023-03-20T03:15:12.350Z,441.00
2023-03-20T03:16:12.485Z,440.00
2023-03-20T03:17:12.475Z,439.00
2023-03-20T03:18:12.540Z,441.00
2023-03-20T03:19:12.598Z,441.00
2023-03-20T03:20:12.663Z,437.00
2023-03-20T03:21:12.710Z,443.00
2023-03-20T03:22:12.761Z,439.00
2023-03-20T03:23:12.821Z,438.00
2023-03-20T03:24:12.877Z,440.00
2023-03-20T03:25:12.933Z,439.00
2023-03-20T03:26:13.003Z,436.00
2023-03-20T03:27:13.079Z,437.00
2023-03-20T03:28:13.149Z,437.00
2023-03-20T03:29:13.207Z,442.00
2023-03-20T03:30:13.277Z,444.00
2023-03-20T03:31:13.342Z,419.00
2023-03-20T03:32:13.404Z,465.00
2023-03-20T03:33:13.556Z,450.00
2023-03-20T03:34:13.557Z,462.00
2023-03-20T03:35:13.624Z,438.00
2023-03-20T03:36:13.738Z,449.00
2023-03-20T03:37:13.744Z,465.00
2023-03-20T03:38:13.811Z,457.00
2023-03-20T03:39:13.898Z,449.00
2023-03-20T03:40:13.949Z,443.00
2023-03-20T03:41:14.044Z,460.00
2023-03-20T03:42:14.104Z,445.00
2023-03-20T03:43:14.174Z,442.00
2023-03-20T03:44:14.234Z,441.00
2023-03-20T03:45:14.302Z,444.00
2023-03-20T03:46:14.395Z,445.00
2023-03-20T03:47:14.436Z,443.00
2023-03-20T03:48:14.496Z,444.00
2023-03-20T03:49:14.565Z,447.00
2023-03-20T03:50:14.619Z,447.00
2023-03-20T03:51:14.691Z,447.00
2023-03-20T03:52:14.738Z,445.00
2023-03-20T03:53:14.795Z,446.00
2023-03-20T03:54:14.835Z,444.00
2023-03-20T03:55:14.887Z,444.00
2023-03-20T03:56:14.952Z,444.00
2023-03-20T03:57:14.981Z,446.00
2023-03-20T03:58:15.039Z,447.00
2023-03-20T03:59:15.081Z,448.00
2023-03-20T04:00:15.148Z,453.00
2023-03-20T04:01:15.201Z,448.00
2023-03-20T04:02:15.274Z,445.00
2023-03-20T04:03:15.296Z,440.00
2023-03-20T04:04:15.438Z,445.00
2023-03-20T04:05:15.416Z,435.00
2023-03-20T04:06:15.460Z,448.00
2023-03-20T04:07:15.522Z,448.00
2023-03-20T04:08:15.580Z,424.00
2023-03-20T04:09:15.638Z,444.00
2023-03-20T04:10:15.717Z,445.00
2023-03-20T04:11:15.772Z,443.00
2023-03-20T04:12:16.056Z,442.00
2023-03-20T04:13:15.922Z,441.00
2023-03-20T04:15:16.070Z,441.00
2023-03-20T04:45:18.401Z,442.00
2023-03-20T04:46:18.501Z,442.00
2023-03-20T04:47:18.523Z,443.00
2023-03-20T04:48:18.594Z,443.00
2023-03-20T04:49:18.671Z,445.00
2023-03-20T04:50:18.735Z,448.00
2023-03-20T04:51:18.858Z,446.00
2023-03-20T04:52:18.880Z,441.00
2023-03-20T04:53:18.939Z,444.00
2023-03-20T04:54:19.007Z,461.00
2023-03-20T04:55:19.080Z,459.00
2023-03-20T04:56:19.150Z,456.00
2023-03-20T04:57:19.220Z,454.00
2023-03-20T04:58:19.311Z,451.00
2023-03-20T04:59:19.378Z,452.00
2023-03-20T05:00:19.455Z,449.00
2023-03-20T05:01:19.523Z,450.00
2023-03-20T05:02:19.578Z,451.00
2023-03-20T05:03:22.539Z,444.00
2023-03-20T05:04:19.711Z,450.00
2023-03-20T05:05:19.686Z,451.00
2023-03-20T05:06:19.693Z,446.00
2023-03-20T05:07:19.708Z,452.00
2023-03-20T05:08:19.712Z,454.00
2023-03-20T05:09:20.065Z,450.00
2023-03-20T05:10:19.745Z,452.00
2023-03-20T05:11:19.767Z,457.00
2023-03-20T05:12:19.779Z,442.00
2023-03-20T05:13:19.795Z,452.00
2023-03-20T05:14:19.826Z,451.00
2023-03-20T05:15:19.836Z,459.00
2023-03-20T05:16:19.918Z,454.00
2023-03-20T05:17:19.851Z,451.00
2023-03-20T05:18:19.946Z,450.00
2023-03-20T05:19:19.889Z,453.00
2023-03-20T05:20:19.895Z,453.00
2023-03-20T05:21:19.909Z,455.00
2023-03-20T05:22:19.929Z,457.00
2023-03-20T05:23:19.940Z,458.00
2023-03-20T05:24:19.963Z,455.00
2023-03-20T05:25:20.005Z,456.00
2023-03-20T05:26:20.078Z,472.00
2023-03-20T05:27:20.170Z,448.00
2023-03-20T05:28:20.227Z,448.00
2023-03-20T05:29:20.289Z,447.00
2023-03-20T05:30:20.377Z,441.00
2023-03-20T05:31:20.465Z,444.00
2023-03-20T05:32:20.531Z,446.00
2023-03-20T05:33:20.620Z,449.00
2023-03-20T05:34:20.713Z,450.00
2023-03-20T05:35:20.846Z,448.00
2023-03-20T05:36:20.946Z,451.00
2023-03-20T05:37:20.941Z,451.00
2023-03-20T05:38:21.008Z,449.00
2023-03-20T05:39:21.085Z,447.00
2023-03-20T05:40:21.166Z,446.00
2023-03-20T05:41:21.250Z,450.00
2023-03-20T05:42:21.345Z,450.00
2023-03-20T05:43:21.410Z,449.00
2023-03-20T05:44:21.505Z,448.00
2023-03-20T05:45:21.586Z,448.00
2023-03-20T05:46:21.700Z,448.00
2023-03-20T05:47:24.202Z,445.00
2023-03-20T05:48:21.771Z,441.00
2023-03-20T05:49:21.810Z,442.00
2023-03-20T05:50:21.816Z,442.00
2023-03-20T05:51:21.832Z,445.00
2023-03-20T05:52:21.840Z,457.00
2023-03-20T05:53:21.840Z,448.00
2023-03-20T05:54:21.866Z,448.00
2023-03-20T05:55:21.865Z,445.00
2023-03-20T05:56:21.941Z,447.00
2023-03-20T05:57:21.912Z,445.00
2023-03-20T05:58:21.898Z,445.00
2023-03-20T05:59:21.940Z,444.00
2023-03-20T06:00:21.950Z,444.00
2023-03-20T06:01:22.012Z,443.00
2023-03-20T06:02:21.985Z,443.00
2023-03-20T06:03:22.049Z,442.00
2023-03-20T06:04:22.032Z,442.00
2023-03-20T06:05:22.152Z,444.00
2023-03-20T06:06:22.165Z,443.00
2023-03-20T06:07:22.191Z,443.00
2023-03-20T06:08:22.253Z,441.00
2023-03-20T06:09:22.244Z,446.00
2023-03-20T06:10:22.253Z,448.00
2023-03-20T06:11:22.259Z,449.00
2023-03-20T06:12:22.385Z,449.00
2023-03-20T06:13:22.398Z,449.00
2023-03-20T06:14:22.414Z,454.00
2023-03-20T06:15:22.427Z,453.00
2023-03-20T06:16:22.471Z,454.00
2023-03-20T06:17:22.452Z,454.00
2023-03-20T06:18:22.461Z,455.00
2023-03-20T06:19:22.464Z,456.00
2023-03-20T06:20:22.481Z,457.00
2023-03-20T06:21:22.502Z,455.00
2023-03-20T06:22:22.556Z,455.00
2023-03-20T06:23:22.596Z,455.00
2023-03-20T06:24:22.672Z,457.00
2023-03-20T06:25:22.761Z,457.00
2023-03-20T06:26:22.839Z,455.00
2023-03-20T06:27:22.915Z,451.00
2023-03-20T06:28:23.001Z,453.00
2023-03-20T06:29:23.086Z,452.00
2023-03-20T06:30:23.188Z,456.00
2023-03-20T06:31:23.309Z,458.00
2023-03-20T06:32:23.308Z,457.00
2023-03-20T06:33:23.377Z,457.00
2023-03-20T06:34:23.445Z,461.00
2023-03-20T06:35:23.565Z,467.00
2023-03-20T06:36:23.637Z,466.00
2023-03-20T06:37:23.718Z,464.00
2023-03-20T06:38:23.766Z,466.00
2023-03-20T06:39:23.831Z,466.00
2023-03-20T06:40:23.909Z,465.00
2023-03-20T06:41:34.263Z,460.00
2023-03-20T06:42:24.998Z,460.00
2023-03-20T06:43:23.985Z,457.00
2023-03-20T06:44:24.010Z,461.00
2023-03-20T06:45:24.010Z,462.00
2023-03-20T06:46:24.054Z,455.00
2023-03-20T06:47:24.066Z,455.00
2023-03-20T06:48:24.082Z,451.00
2023-03-20T06:49:24.098Z,452.00
2023-03-20T06:50:24.119Z,451.00
2023-03-20T06:51:24.131Z,448.00
2023-03-20T06:52:24.142Z,461.00
2023-03-20T06:53:24.226Z,453.00
2023-03-20T06:54:24.289Z,450.00
2023-03-20T06:55:24.356Z,480.00
2023-03-20T06:56:24.438Z,480.00
2023-03-20T06:57:24.506Z,465.00
2023-03-20T06:58:24.572Z,458.00
2023-03-20T06:59:24.656Z,457.00
2023-03-20T07:00:24.780Z,452.00
2023-03-20T07:01:24.833Z,446.00
2023-03-20T07:02:24.859Z,471.00
2023-03-20T07:03:24.924Z,464.00
2023-03-20T07:04:25.008Z,460.00
2023-03-20T07:05:25.144Z,456.00
2023-03-20T07:06:25.155Z,458.00
2023-03-20T07:07:25.223Z,452.00
2023-03-20T07:08:25.313Z,452.00
2023-03-20T07:09:25.394Z,450.00
2023-03-20T07:10:25.462Z,453.00
2023-03-20T07:11:25.517Z,455.00
2023-03-20T07:12:25.597Z,457.00
2023-03-20T07:13:25.743Z,456.00
2023-03-20T07:14:25.704Z,455.00
2023-03-20T07:15:25.735Z,453.00
2023-03-20T07:16:25.831Z,456.00
2023-03-20T07:17:25.792Z,461.00
2023-03-20T07:18:25.828Z,466.00
2023-03-20T07:19:25.830Z,467.00
2023-03-20T07:20:25.847Z,468.00
2023-03-20T07:21:25.871Z,466.00
2023-03-20T07:22:25.856Z,464.00
2023-03-20T07:23:25.859Z,460.00
2023-03-20T07:24:25.854Z,461.00
2023-03-20T07:25:39.315Z,458.00
2023-03-20T07:26:26.832Z,458.00
2023-03-20T07:27:25.817Z,458.00
2023-03-20T07:28:25.825Z,458.00
2023-03-20T07:29:25.806Z,438.00
2023-03-20T07:30:25.800Z,457.00
2023-03-20T07:31:25.827Z,460.00
2023-03-20T07:32:25.791Z,463.00
2023-03-20T07:33:25.793Z,462.00
2023-03-20T07:34:25.783Z,456.00
2023-03-20T07:35:25.786Z,453.00
2023-03-20T07:36:25.782Z,454.00
2023-03-20T07:37:25.789Z,455.00
2023-03-20T07:38:25.796Z,454.00
2023-03-20T07:39:25.800Z,458.00
2023-03-20T07:40:25.780Z,455.00
2023-03-20T07:41:25.783Z,456.00
2023-03-20T07:42:25.784Z,455.00
2023-03-20T07:43:25.776Z,454.00
2023-03-20T07:44:25.784Z,451.00
2023-03-20T07:45:25.768Z,448.00
2023-03-20T07:46:25.874Z,447.00
2023-03-20T07:47:25.760Z,448.00
2023-03-20T07:48:25.749Z,444.00
2023-03-20T07:49:25.750Z,445.00
2023-03-20T07:50:25.740Z,444.00
2023-03-20T07:51:25.731Z,448.00
2023-03-20T07:52:25.737Z,443.00
2023-03-20T07:53:25.720Z,453.00
2023-03-20T07:54:25.721Z,450.00
2023-03-20T07:55:25.709Z,448.00
2023-03-20T07:56:25.704Z,447.00
2023-03-20T07:57:25.689Z,446.00
2023-03-20T07:58:25.678Z,448.00
2023-03-20T07:59:25.684Z,445.00
2023-03-20T08:00:28.063Z,447.00
2023-03-20T08:01:25.883Z,450.00
2023-03-20T08:02:25.874Z,446.00
2023-03-20T08:03:26.727Z,454.00
2023-03-20T08:04:26.016Z,459.00
2023-03-20T08:05:25.943Z,455.00
2023-03-20T08:06:25.943Z,453.00
2023-03-20T08:07:25.957Z,449.00
2023-03-20T08:08:26.002Z,448.00
2023-03-20T08:09:26.067Z,447.00
2023-03-20T08:10:26.227Z,451.00
2023-03-20T08:11:26.137Z,451.00
2023-03-20T08:12:26.297Z,460.00
2023-03-20T08:26:29.107Z,439.00
2023-03-20T09:45:28.509Z,440.00
2023-03-20T09:46:28.761Z,443.00
2023-03-20T09:47:28.872Z,447.00
2023-03-20T09:48:29.043Z,451.00
2023-03-20T09:49:29.163Z,449.00
2023-03-20T09:50:29.392Z,451.00
2023-03-20T09:51:29.557Z,450.00
2023-03-20T09:52:29.741Z,451.00
2023-03-20T09:53:29.878Z,449.00
2023-03-20T09:54:32.445Z,444.00
2023-03-20T09:55:31.074Z,442.00
2023-03-20T09:56:29.989Z,446.00
2023-03-20T09:57:29.989Z,448.00
2023-03-20T09:58:30.136Z,448.00
2023-03-20T09:59:29.870Z,445.00
2023-03-20T10:00:29.839Z,445.00
2023-03-20T10:01:29.872Z,449.00
2023-03-20T10:02:29.789Z,448.00
2023-03-20T10:03:29.752Z,443.00
2023-03-20T10:04:29.817Z,443.00
2023-03-20T10:05:29.693Z,445.00
2023-03-20T10:06:30.638Z,447.00
2023-03-20T10:07:29.646Z,447.00
2023-03-20T10:08:29.630Z,448.00
2023-03-20T10:09:29.583Z,449.00
2023-03-20T10:10:29.625Z,450.00
2023-03-20T10:11:29.525Z,451.00
2023-03-20T10:12:29.518Z,452.00
2023-03-20T10:13:29.476Z,450.00
2023-03-20T10:14:29.533Z,450.00
2023-03-20T10:15:29.413Z,450.00
2023-03-20T10:16:29.441Z,448.00
2023-03-20T10:17:29.366Z,446.00
2023-03-20T10:18:29.337Z,448.00
2023-03-20T10:19:29.308Z,447.00
2023-03-20T10:20:29.287Z,444.00
2023-03-20T10:21:29.241Z,443.00
2023-03-20T10:22:29.422Z,444.00
2023-03-20T10:23:29.509Z,442.00
2023-03-20T10:24:29.580Z,446.00
2023-03-20T10:25:29.483Z,447.00
2023-03-20T10:26:29.464Z,454.00
2023-03-20T10:27:29.428Z,455.00
2023-03-20T10:28:29.409Z,454.00
2023-03-20T10:29:29.377Z,450.00
2023-03-20T10:30:29.397Z,448.00
2023-03-20T10:31:29.418Z,448.00
2023-03-20T10:32:29.399Z,446.00
2023-03-20T10:33:29.406Z,449.00
2023-03-20T10:34:29.406Z,449.00
2023-03-20T10:35:29.397Z,447.00
2023-03-20T10:36:29.411Z,444.00
2023-03-20T10:37:29.426Z,444.00
2023-03-20T10:38:29.468Z,447.00
2023-03-20T10:39:29.485Z,447.00
2023-03-20T10:40:29.495Z,448.00
2023-03-20T10:41:29.478Z,448.00
2023-03-20T10:42:29.454Z,448.00
2023-03-20T10:43:29.438Z,448.00
2023-03-20T10:44:29.428Z,442.00
2023-03-20T10:45:29.493Z,439.00
2023-03-20T10:46:29.438Z,439.00
2023-03-20T10:47:29.379Z,439.00
2023-03-20T10:48:29.351Z,435.00
2023-03-20T10:49:29.313Z,436.00
2023-03-20T10:50:29.310Z,438.00
2023-03-20T10:51:29.317Z,442.00
2023-03-20T10:52:29.329Z,445.00
2023-03-20T10:53:29.344Z,445.00
2023-03-20T10:54:29.337Z,447.00
2023-03-20T10:55:29.325Z,443.00
2023-03-20T10:56:29.425Z,442.00
2023-03-20T10:57:29.321Z,443.00
2023-03-20T10:58:29.278Z,444.00
2023-03-20T10:59:29.274Z,440.00
2023-03-20T11:00:29.249Z,441.00
2023-03-20T11:01:29.286Z,442.00
2023-03-20T11:02:29.213Z,442.00
2023-03-20T11:03:29.229Z,447.00
2023-03-20T11:04:29.299Z,447.00
2023-03-20T11:05:29.208Z,447.00
2023-03-20T11:06:29.223Z,447.00
2023-03-20T11:07:29.207Z,445.00
2023-03-20T11:08:29.181Z,444.00
2023-03-20T11:09:29.182Z,444.00
2023-03-20T11:10:29.145Z,445.00
2023-03-20T11:11:29.128Z,444.00
2023-03-20T11:12:29.102Z,445.00
2023-03-20T11:13:29.058Z,446.00
2023-03-20T11:14:29.094Z,447.00
2023-03-20T11:15:29.075Z,447.00
2023-03-20T11:16:29.158Z,447.00
2023-03-20T11:17:29.138Z,444.00
2023-03-20T11:18:29.156Z,443.00
2023-03-20T11:19:29.152Z,445.00
2023-03-20T11:20:29.150Z,445.00
2023-03-20T11:21:29.215Z,444.00
2023-03-20T11:22:29.209Z,445.00
2023-03-20T11:23:30.167Z,443.00
2023-03-20T11:24:29.229Z,439.00
2023-03-20T11:25:29.223Z,444.00
2023-03-20T11:26:29.229Z,448.00
2023-03-20T11:27:29.246Z,446.00
2023-03-20T11:28:29.251Z,436.00
2023-03-20T11:29:29.276Z,441.00
2023-03-20T11:30:29.285Z,440.00
2023-03-20T11:31:29.413Z,440.00
2023-03-20T11:32:29.309Z,441.00
2023-03-20T11:33:29.373Z,442.00
2023-03-20T11:34:29.495Z,437.00
2023-03-20T11:35:29.706Z,440.00
2023-03-20T11:36:29.922Z,438.00
2023-03-20T11:37:30.057Z,441.00
2023-03-20T11:38:30.280Z,443.00
2023-03-20T11:39:30.409Z,439.00
2023-03-20T11:40:30.522Z,443.00
2023-03-20T11:41:30.661Z,440.00
2023-03-20T11:42:30.878Z,436.00
2023-03-20T11:43:31.024Z,430.00
2023-03-20T11:44:31.177Z,431.00
2023-03-20T12:29:38.416Z,437.00
2023-03-20T12:30:38.470Z,437.00
2023-03-20T12:31:38.703Z,434.00
2023-03-20T14:27:48.417Z,446.00
2023-03-20T14:28:48.547Z,447.00
2023-03-20T14:29:48.791Z,443.00
2023-03-20T14:30:48.965Z,434.00
2023-03-20T14:31:49.094Z,434.00
2023-03-20T14:32:49.280Z,439.00
2023-03-20T14:33:49.406Z,440.00
2023-03-20T14:34:49.573Z,441.00
2023-03-20T14:35:49.793Z,440.00
2023-03-20T14:36:49.935Z,441.00
2023-03-20T14:37:50.100Z,442.00
2023-03-20T14:38:54.264Z,442.00
2023-03-20T14:39:50.176Z,443.00
2023-03-20T14:40:50.071Z,437.00
2023-03-20T14:41:49.968Z,439.00
2023-03-20T14:42:49.857Z,439.00
2023-03-20T14:43:49.772Z,438.00
2023-03-20T14:44:49.692Z,439.00
2023-03-20T14:45:49.588Z,439.00
2023-03-20T14:46:49.499Z,438.00
2023-03-20T14:47:49.404Z,440.00
2023-03-20T14:48:49.292Z,441.00
2023-03-20T14:49:49.203Z,441.00
2023-03-20T14:50:49.113Z,438.00
2023-03-20T14:51:49.016Z,437.00
2023-03-20T14:52:48.921Z,438.00
2023-03-20T14:53:48.823Z,436.00
2023-03-20T14:54:48.736Z,436.00
2023-03-20T14:55:48.637Z,438.00
2023-03-20T14:56:48.531Z,439.00
2023-03-20T14:57:56.558Z,437.00
2023-03-20T14:58:49.349Z,439.00
2023-03-20T15:22:24.087Z,426.00
2023-03-20T15:26:23.989Z,430.00
2023-03-20T15:30:23.857Z,428.00
2023-03-20T15:34:23.938Z,425.00
2023-03-20T15:38:23.858Z,420.00
2023-03-20T15:42:23.782Z,423.00
2023-03-20T15:46:24.128Z,427.00
2023-03-20T15:50:24.111Z,428.00
2023-03-20T15:54:24.263Z,432.00
2023-03-20T15:58:24.303Z,431.00
2023-03-20T16:02:24.299Z,425.00
2023-03-20T16:06:24.341Z,434.00
2023-03-20T16:10:24.370Z,427.00
2023-03-20T16:14:24.415Z,429.00
2023-03-20T16:18:24.427Z,425.00
2023-03-20T16:22:24.533Z,424.00
2023-03-20T16:26:24.802Z,424.00
2023-03-20T16:30:24.910Z,425.00
2023-03-20T16:34:25.019Z,429.00
2023-03-20T16:38:25.203Z,426.00
2023-03-20T16:42:25.286Z,425.00
2023-03-20T16:46:25.472Z,420.00
2023-03-20T16:50:25.603Z,429.00
2023-03-20T16:54:25.763Z,427.00
2023-03-20T16:58:25.913Z,425.00
2023-03-20T17:02:26.054Z,427.00
2023-03-20T17:06:26.184Z,429.00
2023-03-20T17:10:26.685Z,426.00
2023-03-20T17:14:26.579Z,425.00
2023-03-20T17:18:26.903Z,426.00
2023-03-20T17:22:27.303Z,354.00
2023-03-20T17:26:27.731Z,430.00
2023-03-20T17:30:28.149Z,430.00
2023-03-20T17:34:28.431Z,430.00
2023-03-20T17:38:28.728Z,426.00
2023-03-20T17:42:28.925Z,431.00
2023-03-20T17:46:29.228Z,431.00
2023-03-20T17:50:29.347Z,433.00
2023-03-20T17:54:29.604Z,439.00
2023-03-20T17:58:29.891Z,441.00
2023-03-20T18:02:30.262Z,442.00
2023-03-20T18:06:30.571Z,441.00
2023-03-20T18:10:30.800Z,441.00
2023-03-20T18:14:31.106Z,437.00
2023-03-20T18:18:31.424Z,442.00
2023-03-20T18:22:31.740Z,441.00
2023-03-20T18:26:32.089Z,441.00
2023-03-20T18:30:32.457Z,446.00
2023-03-20T18:34:32.859Z,445.00
2023-03-20T18:38:33.271Z,438.00
2023-03-20T18:42:33.716Z,444.00
2023-03-20T18:46:34.197Z,443.00
2023-03-20T18:50:37.156Z,439.00
2023-03-20T18:54:34.939Z,442.00
2023-03-20T18:58:35.258Z,445.00
2023-03-20T19:02:35.514Z,445.00
2023-03-20T19:06:35.793Z,443.00
2023-03-20T19:10:36.657Z,444.00
2023-03-20T19:14:36.388Z,441.00
2023-03-20T19:18:39.900Z,445.00
2023-03-20T19:22:36.980Z,448.00
2023-03-20T19:26:37.263Z,447.00
2023-03-20T19:30:38.000Z,449.00
2023-03-20T19:35:31.117Z,446.00
2023-03-20T19:38:39.255Z,447.00
2023-03-20T19:42:59.823Z,449.00
2023-03-20T19:46:41.704Z,447.00
2023-03-20T19:50:41.630Z,453.00
2023-03-20T19:54:41.810Z,450.00
2023-03-20T19:58:39.829Z,449.00
2023-03-20T20:02:40.251Z,448.00
2023-03-20T20:06:41.789Z,445.00
2023-03-20T20:10:40.861Z,452.00
2023-03-20T20:14:41.210Z,450.00
2023-03-20T20:18:41.687Z,450.00
2023-03-20T20:22:42.187Z,448.00
2023-03-20T20:26:53.414Z,448.00
2023-03-20T20:30:43.996Z,450.00
2023-03-20T20:38:51.049Z,445.00
2023-03-20T20:42:45.073Z,445.00
2023-03-20T20:46:45.007Z,447.00
2023-03-20T20:50:45.431Z,450.00
2023-03-20T20:54:45.239Z,452.00
2023-03-20T20:58:45.627Z,450.00
2023-03-20T21:02:46.095Z,449.00
2023-03-20T21:10:47.834Z,454.00
2023-03-20T21:14:47.198Z,448.00
2023-03-20T21:18:47.646Z,449.00
2023-03-20T21:22:48.110Z,454.00
2023-03-20T21:26:48.668Z,449.00
2023-03-20T21:31:20.428Z,453.00
2023-03-20T21:34:50.650Z,457.00
2023-03-20T21:39:19.936Z,459.00
2023-03-20T21:42:51.425Z,460.00
2023-03-20T21:51:26.420Z,450.00
2023-03-20T21:59:36.804Z,457.00
2023-03-20T22:02:57.068Z,465.00
2023-03-20T22:07:32.113Z,458.00
2023-03-20T22:11:44.204Z,458.00
2023-03-20T22:27:42.864Z,440.00
2023-03-20T22:43:55.216Z,458.00
2023-03-20T22:46:58.489Z,453.00
2023-03-20T22:50:57.799Z,454.00
2023-03-20T22:54:58.202Z,452.00
2023-03-20T22:58:58.633Z,454.00
2023-03-20T23:03:13.698Z,453.00
2023-03-20T23:07:00.622Z,451.00
2023-03-20T23:11:00.096Z,408.00
2023-03-20T23:15:00.773Z,446.00
2023-03-20T23:19:01.345Z,432.00
2023-03-20T23:23:01.814Z,441.00
2023-03-20T23:27:02.254Z,442.00
2023-03-20T23:31:10.016Z,475.00
2023-03-20T23:35:04.197Z,442.00
2023-03-20T23:39:03.662Z,449.00
2023-03-20T23:43:04.197Z,444.00
2023-03-20T23:47:17.798Z,457.00
2023-03-20T23:51:06.410Z,434.00
2023-03-20T23:55:05.891Z,451.00
2023-03-20T23:59:20.187Z,447.00
